sensor_id;sensor_type;location;lat;lon;timestamp;P1;durP1;ratioP1;P2;durP2;ratioP2
50651;SDS011;66928;52.086;5.240;2023-06-22T00:00:02;8.5;;;7.0;;
50651;SDS011;66928;52.086;5.240;2023-06-22T00:01:38;9.31;;;7.1;;
50651;SDS011;66928;52.086;5.240;2023-06-22T00:03:15;8.6;;;7.0;;
50651;SDS011;66928;52.086;5.240;2023-06-22T00:06:27;8.31;;;6.5;;
50651;SDS011;66928;52.086;5.240;2023-06-22T00:08:03;9.0;;;7.1;;
50651;SDS011;66928;52.086;5.240;2023-06-22T00:09:40;9.6;;;7.6;;
50651;SDS011;66928;52.086;5.240;2023-06-22T00:11:16;8.81;;;7.5;;
50651;SDS011;66928;52.086;5.240;2023-06-22T00:14:29;8.9;;;7.0;;
50651;SDS011;66928;52.086;5.240;2023-06-22T00:16:05;8.31;;;7.0;;
50651;SDS011;66928;52.086;5.240;2023-06-22T00:17:41;10.3;;;7.3;;
50651;SDS011;66928;52.086;5.240;2023-06-22T00:20:54;8.9;;;7.7;;
50651;SDS011;66928;52.086;5.240;2023-06-22T00:22:30;9.81;;;7.7;;
50651;SDS011;66928;52.086;5.240;2023-06-22T00:24:07;9.31;;;7.5;;
50651;SDS011;66928;52.086;5.240;2023-06-22T00:27:19;8.31;;;7.0;;
50651;SDS011;66928;52.086;5.240;2023-06-22T00:28:55;9.81;;;7.8;;
50651;SDS011;66928;52.086;5.240;2023-06-22T00:30:31;9.6;;;7.9;;
50651;SDS011;66928;52.086;5.240;2023-06-22T00:33:45;9.9;;;7.8;;
50651;SDS011;66928;52.086;5.240;2023-06-22T00:35:21;9.31;;;7.4;;
50651;SDS011;66928;52.086;5.240;2023-06-22T00:36:57;8.1;;;6.9;;
50651;SDS011;66928;52.086;5.240;2023-06-22T00:38:33;9.0;;;7.5;;
50651;SDS011;66928;52.086;5.240;2023-06-22T00:41:46;9.4;;;7.3;;
50651;SDS011;66928;52.086;5.240;2023-06-22T00:43:23;9.5;;;6.9;;
50651;SDS011;66928;52.086;5.240;2023-06-22T00:44:59;8.81;;;7.4;;
50651;SDS011;66928;52.086;5.240;2023-06-22T00:48:12;9.6;;;6.6;;
50651;SDS011;66928;52.086;5.240;2023-06-22T00:49:49;8.31;;;7.0;;
50651;SDS011;66928;52.086;5.240;2023-06-22T00:51:26;8.81;;;7.6;;
50651;SDS011;66928;52.086;5.240;2023-06-22T00:54:43;10.21;;;7.2;;
50651;SDS011;66928;52.086;5.240;2023-06-22T00:56:20;8.0;;;7.0;;
50651;SDS011;66928;52.086;5.240;2023-06-22T00:57:56;10.7;;;7.6;;
50651;SDS011;66928;52.086;5.240;2023-06-22T00:59:32;7.7;;;6.6;;
50651;SDS011;66928;52.086;5.240;2023-06-22T01:02:45;8.1;;;7.1;;
50651;SDS011;66928;52.086;5.240;2023-06-22T01:04:24;9.31;;;7.1;;
50651;SDS011;66928;52.086;5.240;2023-06-22T01:06:12;8.0;;;6.9;;
50651;SDS011;66928;52.086;5.240;2023-06-22T01:07:57;10.3;;;7.2;;
50651;SDS011;66928;52.086;5.240;2023-06-22T01:11:28;9.9;;;7.6;;
50651;SDS011;66928;52.086;5.240;2023-06-22T01:13:15;9.9;;;7.6;;
50651;SDS011;66928;52.086;5.240;2023-06-22T01:15:02;8.4;;;7.0;;
50651;SDS011;66928;52.086;5.240;2023-06-22T01:16:44;7.5;;;6.6;;
50651;SDS011;66928;52.086;5.240;2023-06-22T01:18:23;8.6;;;6.9;;
50651;SDS011;66928;52.086;5.240;2023-06-22T01:21:44;9.9;;;7.5;;
50651;SDS011;66928;52.086;5.240;2023-06-22T01:23:26;7.6;;;6.5;;
50651;SDS011;66928;52.086;5.240;2023-06-22T01:25:09;7.7;;;6.9;;
50651;SDS011;66928;52.086;5.240;2023-06-22T01:26:52;9.31;;;7.0;;
50651;SDS011;66928;52.086;5.240;2023-06-22T01:30:21;9.31;;;7.0;;
50651;SDS011;66928;52.086;5.240;2023-06-22T01:32:00;8.5;;;6.9;;
50651;SDS011;66928;52.086;5.240;2023-06-22T01:33:41;9.5;;;7.7;;
50651;SDS011;66928;52.086;5.240;2023-06-22T01:35:19;9.21;;;8.0;;
50651;SDS011;66928;52.086;5.240;2023-06-22T01:38:35;8.4;;;7.1;;
50651;SDS011;66928;52.086;5.240;2023-06-22T01:40:14;8.2;;;7.3;;
50651;SDS011;66928;52.086;5.240;2023-06-22T01:41:51;8.31;;;7.4;;
50651;SDS011;66928;52.086;5.240;2023-06-22T01:43:29;9.6;;;7.1;;
50651;SDS011;66928;52.086;5.240;2023-06-22T01:46:43;8.9;;;7.8;;
50651;SDS011;66928;52.086;5.240;2023-06-22T01:48:20;11.2;;;7.5;;
50651;SDS011;66928;52.086;5.240;2023-06-22T01:49:58;8.4;;;7.5;;
50651;SDS011;66928;52.086;5.240;2023-06-22T01:53:10;9.9;;;7.6;;
50651;SDS011;66928;52.086;5.240;2023-06-22T01:54:46;10.3;;;7.8;;
50651;SDS011;66928;52.086;5.240;2023-06-22T01:56:23;8.2;;;7.3;;
50651;SDS011;66928;52.086;5.240;2023-06-22T01:58:01;10.6;;;7.4;;
50651;SDS011;66928;52.086;5.240;2023-06-22T02:01:24;10.9;;;8.0;;
50651;SDS011;66928;52.086;5.240;2023-06-22T02:03:08;8.5;;;7.2;;
50651;SDS011;66928;52.086;5.240;2023-06-22T02:04:51;8.2;;;7.4;;
50651;SDS011;66928;52.086;5.240;2023-06-22T02:06:34;10.0;;;8.1;;
50651;SDS011;66928;52.086;5.240;2023-06-22T02:09:56;9.81;;;8.31;;
50651;SDS011;66928;52.086;5.240;2023-06-22T02:11:35;10.6;;;8.4;;
50651;SDS011;66928;52.086;5.240;2023-06-22T02:13:13;10.0;;;7.8;;
50651;SDS011;66928;52.086;5.240;2023-06-22T02:14:51;10.6;;;8.4;;
50651;SDS011;66928;52.086;5.240;2023-06-22T02:18:07;11.6;;;8.2;;
50651;SDS011;66928;52.086;5.240;2023-06-22T02:19:44;11.8;;;7.9;;
50651;SDS011;66928;52.086;5.240;2023-06-22T02:21:20;9.0;;;8.0;;
50651;SDS011;66928;52.086;5.240;2023-06-22T02:24:33;8.81;;;7.9;;
50651;SDS011;66928;52.086;5.240;2023-06-22T02:26:09;11.9;;;8.0;;
50651;SDS011;66928;52.086;5.240;2023-06-22T02:27:46;11.4;;;8.6;;
50651;SDS011;66928;52.086;5.240;2023-06-22T02:29:22;10.0;;;8.5;;
50651;SDS011;66928;52.086;5.240;2023-06-22T02:32:34;8.6;;;7.7;;
50651;SDS011;66928;52.086;5.240;2023-06-22T02:34:11;10.9;;;7.9;;
50651;SDS011;66928;52.086;5.240;2023-06-22T02:35:47;9.31;;;8.0;;
50651;SDS011;66928;52.086;5.240;2023-06-22T02:39:00;11.8;;;8.0;;
50651;SDS011;66928;52.086;5.240;2023-06-22T02:40:36;9.9;;;8.0;;
50651;SDS011;66928;52.086;5.240;2023-06-22T02:42:12;9.81;;;8.1;;
50651;SDS011;66928;52.086;5.240;2023-06-22T02:45:25;8.9;;;7.8;;
50651;SDS011;66928;52.086;5.240;2023-06-22T02:47:01;10.5;;;7.6;;
50651;SDS011;66928;52.086;5.240;2023-06-22T02:48:38;11.0;;;7.7;;
50651;SDS011;66928;52.086;5.240;2023-06-22T02:50:15;9.31;;;7.3;;
50651;SDS011;66928;52.086;5.240;2023-06-22T02:53:27;9.71;;;7.9;;
50651;SDS011;66928;52.086;5.240;2023-06-22T02:55:04;9.5;;;7.7;;
50651;SDS011;66928;52.086;5.240;2023-06-22T02:56:42;9.21;;;7.7;;
50651;SDS011;66928;52.086;5.240;2023-06-22T02:59:54;9.9;;;8.0;;
50651;SDS011;66928;52.086;5.240;2023-06-22T03:01:30;9.31;;;7.6;;
50651;SDS011;66928;52.086;5.240;2023-06-22T03:03:07;9.0;;;7.7;;
50651;SDS011;66928;52.086;5.240;2023-06-22T03:06:20;11.2;;;8.1;;
50651;SDS011;66928;52.086;5.240;2023-06-22T03:07:56;10.9;;;8.6;;
50651;SDS011;66928;52.086;5.240;2023-06-22T03:09:32;9.1;;;7.9;;
50651;SDS011;66928;52.086;5.240;2023-06-22T03:12:46;9.71;;;8.5;;
50651;SDS011;66928;52.086;5.240;2023-06-22T03:14:23;10.9;;;7.7;;
50651;SDS011;66928;52.086;5.240;2023-06-22T03:15:59;10.21;;;8.2;;
50651;SDS011;66928;52.086;5.240;2023-06-22T03:17:35;9.31;;;8.31;;
50651;SDS011;66928;52.086;5.240;2023-06-22T03:20:49;10.3;;;8.31;;
50651;SDS011;66928;52.086;5.240;2023-06-22T03:22:25;9.4;;;7.8;;
50651;SDS011;66928;52.086;5.240;2023-06-22T03:24:01;10.5;;;8.71;;
50651;SDS011;66928;52.086;5.240;2023-06-22T03:27:13;13.1;;;9.4;;
50651;SDS011;66928;52.086;5.240;2023-06-22T03:28:49;11.7;;;9.0;;
50651;SDS011;66928;52.086;5.240;2023-06-22T03:30:26;10.3;;;9.0;;
50651;SDS011;66928;52.086;5.240;2023-06-22T03:33:38;9.9;;;8.71;;
50651;SDS011;66928;52.086;5.240;2023-06-22T03:35:14;11.0;;;9.81;;
50651;SDS011;66928;52.086;5.240;2023-06-22T03:36:50;14.4;;;9.5;;
50651;SDS011;66928;52.086;5.240;2023-06-22T03:38:26;11.4;;;9.6;;
50651;SDS011;66928;52.086;5.240;2023-06-22T03:41:40;10.21;;;8.81;;
50651;SDS011;66928;52.086;5.240;2023-06-22T03:43:16;11.1;;;8.71;;
50651;SDS011;66928;52.086;5.240;2023-06-22T03:44:52;11.1;;;8.81;;
50651;SDS011;66928;52.086;5.240;2023-06-22T03:48:05;11.7;;;9.81;;
50651;SDS011;66928;52.086;5.240;2023-06-22T03:49:41;13.5;;;10.1;;
50651;SDS011;66928;52.086;5.240;2023-06-22T03:51:17;11.5;;;9.6;;
50651;SDS011;66928;52.086;5.240;2023-06-22T03:54:29;12.5;;;9.6;;
50651;SDS011;66928;52.086;5.240;2023-06-22T03:56:06;12.6;;;11.3;;
50651;SDS011;66928;52.086;5.240;2023-06-22T03:57:42;14.1;;;10.8;;
50651;SDS011;66928;52.086;5.240;2023-06-22T03:59:19;11.6;;;10.4;;
50651;SDS011;66928;52.086;5.240;2023-06-22T04:02:31;14.6;;;11.9;;
50651;SDS011;66928;52.086;5.240;2023-06-22T04:04:07;13.2;;;11.4;;
50651;SDS011;66928;52.086;5.240;2023-06-22T04:05:43;12.8;;;11.3;;
50651;SDS011;66928;52.086;5.240;2023-06-22T04:08:57;13.5;;;11.4;;
50651;SDS011;66928;52.086;5.240;2023-06-22T04:10:33;13.5;;;11.2;;
50651;SDS011;66928;52.086;5.240;2023-06-22T04:12:09;12.5;;;10.9;;
50651;SDS011;66928;52.086;5.240;2023-06-22T05:32:25;15.9;;;13.6;;
50651;SDS011;66928;52.086;5.240;2023-06-22T05:34:02;16.0;;;13.3;;
50651;SDS011;66928;52.086;5.240;2023-06-22T05:35:38;16.3;;;13.0;;
50651;SDS011;66928;52.086;5.240;2023-06-22T05:38:50;15.8;;;13.1;;
50651;SDS011;66928;52.086;5.240;2023-06-22T05:40:27;16.3;;;13.6;;
50651;SDS011;66928;52.086;5.240;2023-06-22T05:42:04;16.3;;;13.3;;
50651;SDS011;66928;52.086;5.240;2023-06-22T05:45:17;16.9;;;14.0;;
50651;SDS011;66928;52.086;5.240;2023-06-22T05:46:53;15.8;;;14.1;;
50651;SDS011;66928;52.086;5.240;2023-06-22T05:48:29;16.8;;;14.7;;
50651;SDS011;66928;52.086;5.240;2023-06-22T05:51:44;16.9;;;15.1;;
50651;SDS011;66928;52.086;5.240;2023-06-22T05:53:20;20.5;;;15.9;;
50651;SDS011;66928;52.086;5.240;2023-06-22T05:54:56;19.3;;;15.9;;
50651;SDS011;66928;52.086;5.240;2023-06-22T05:56:32;18.91;;;16.3;;
50651;SDS011;66928;52.086;5.240;2023-06-22T05:59:44;21.0;;;17.11;;
50651;SDS011;66928;52.086;5.240;2023-06-22T06:01:21;20.3;;;17.11;;
50651;SDS011;66928;52.086;5.240;2023-06-22T06:02:57;21.0;;;17.41;;
50651;SDS011;66928;52.086;5.240;2023-06-22T06:06:09;19.7;;;17.61;;
50651;SDS011;66928;52.086;5.240;2023-06-22T06:07:45;19.7;;;16.8;;
50651;SDS011;66928;52.086;5.240;2023-06-22T06:09:22;20.6;;;17.8;;
50651;SDS011;66928;52.086;5.240;2023-06-22T06:12:35;21.3;;;16.9;;
50651;SDS011;66928;52.086;5.240;2023-06-22T06:14:11;23.1;;;18.2;;
50651;SDS011;66928;52.086;5.240;2023-06-22T06:15:47;22.8;;;18.8;;
50651;SDS011;66928;52.086;5.240;2023-06-22T06:17:23;22.4;;;18.0;;
50651;SDS011;66928;52.086;5.240;2023-06-22T06:20:35;21.6;;;17.8;;
50651;SDS011;66928;52.086;5.240;2023-06-22T06:22:11;20.7;;;18.0;;
50651;SDS011;66928;52.086;5.240;2023-06-22T06:23:48;23.4;;;18.5;;
50651;SDS011;66928;52.086;5.240;2023-06-22T06:27:00;21.4;;;18.3;;
50651;SDS011;66928;52.086;5.240;2023-06-22T06:28:36;22.0;;;18.2;;
50651;SDS011;66928;52.086;5.240;2023-06-22T06:30:13;21.7;;;18.2;;
50651;SDS011;66928;52.086;5.240;2023-06-22T06:33:27;23.1;;;17.91;;
50651;SDS011;66928;52.086;5.240;2023-06-22T06:35:04;19.61;;;17.5;;
50651;SDS011;66928;52.086;5.240;2023-06-22T06:36:40;21.3;;;18.3;;
50651;SDS011;66928;52.086;5.240;2023-06-22T06:39:52;22.7;;;18.2;;
50651;SDS011;66928;52.086;5.240;2023-06-22T06:41:29;20.5;;;18.11;;
50651;SDS011;66928;52.086;5.240;2023-06-22T06:43:05;20.6;;;17.3;;
50651;SDS011;66928;52.086;5.240;2023-06-22T06:44:41;19.8;;;16.7;;
50651;SDS011;66928;52.086;5.240;2023-06-22T06:47:53;19.41;;;17.3;;
50651;SDS011;66928;52.086;5.240;2023-06-22T06:49:29;19.3;;;17.2;;
50651;SDS011;66928;52.086;5.240;2023-06-22T06:51:06;22.4;;;18.0;;
50651;SDS011;66928;52.086;5.240;2023-06-22T06:54:18;19.41;;;17.2;;
50651;SDS011;66928;52.086;5.240;2023-06-22T06:55:54;19.5;;;16.5;;
50651;SDS011;66928;52.086;5.240;2023-06-22T06:57:30;19.8;;;16.61;;
50651;SDS011;66928;52.086;5.240;2023-06-22T07:00:43;19.5;;;15.9;;
50651;SDS011;66928;52.086;5.240;2023-06-22T07:02:19;20.2;;;15.2;;
50651;SDS011;66928;52.086;5.240;2023-06-22T07:03:55;21.2;;;17.5;;
50651;SDS011;66928;52.086;5.240;2023-06-22T07:05:31;18.41;;;15.3;;
50651;SDS011;66928;52.086;5.240;2023-06-22T07:08:43;21.1;;;16.4;;
50651;SDS011;66928;52.086;5.240;2023-06-22T07:10:20;18.7;;;15.5;;
50651;SDS011;66928;52.086;5.240;2023-06-22T07:11:56;19.91;;;16.4;;
50651;SDS011;66928;52.086;5.240;2023-06-22T07:15:08;17.5;;;15.1;;
50651;SDS011;66928;52.086;5.240;2023-06-22T07:16:45;16.2;;;14.5;;
50651;SDS011;66928;52.086;5.240;2023-06-22T07:18:21;16.5;;;13.7;;
50651;SDS011;66928;52.086;5.240;2023-06-22T07:21:34;13.8;;;11.6;;
50651;SDS011;66928;52.086;5.240;2023-06-22T07:23:10;14.1;;;11.7;;
50651;SDS011;66928;52.086;5.240;2023-06-22T07:24:46;14.7;;;11.6;;
50651;SDS011;66928;52.086;5.240;2023-06-22T07:27:59;12.3;;;11.0;;
50651;SDS011;66928;52.086;5.240;2023-06-22T07:29:38;12.9;;;10.3;;
50651;SDS011;66928;52.086;5.240;2023-06-22T07:31:14;18.41;;;12.1;;
50651;SDS011;66928;52.086;5.240;2023-06-22T07:32:50;15.2;;;11.2;;
50651;SDS011;66928;52.086;5.240;2023-06-22T07:36:02;13.3;;;11.5;;
50651;SDS011;66928;52.086;5.240;2023-06-22T07:37:39;15.3;;;13.6;;
50651;SDS011;66928;52.086;5.240;2023-06-22T07:39:16;16.0;;;12.8;;
50651;SDS011;66928;52.086;5.240;2023-06-22T07:44:04;18.8;;;14.1;;
50651;SDS011;66928;52.086;5.240;2023-06-22T07:45:40;18.0;;;13.8;;
50651;SDS011;66928;52.086;5.240;2023-06-22T07:48:52;17.41;;;14.2;;
50651;SDS011;66928;52.086;5.240;2023-06-22T07:50:29;16.0;;;13.3;;
50651;SDS011;66928;52.086;5.240;2023-06-22T07:52:05;14.8;;;12.2;;
50651;SDS011;66928;52.086;5.240;2023-06-22T07:53:42;14.5;;;12.3;;
50651;SDS011;66928;52.086;5.240;2023-06-22T07:56:55;13.8;;;12.3;;
50651;SDS011;66928;52.086;5.240;2023-06-22T07:58:31;13.7;;;12.3;;
50651;SDS011;66928;52.086;5.240;2023-06-22T08:00:08;14.0;;;12.6;;
50651;SDS011;66928;52.086;5.240;2023-06-22T08:03:22;13.5;;;11.7;;
50651;SDS011;66928;52.086;5.240;2023-06-22T08:04:58;15.3;;;13.3;;
50651;SDS011;66928;52.086;5.240;2023-06-22T08:06:34;14.4;;;12.9;;
50651;SDS011;66928;52.086;5.240;2023-06-22T08:09:47;12.4;;;10.9;;
50651;SDS011;66928;52.086;5.240;2023-06-22T08:11:24;11.6;;;10.0;;
50651;SDS011;66928;52.086;5.240;2023-06-22T08:13:01;12.6;;;10.1;;
50651;SDS011;66928;52.086;5.240;2023-06-22T08:14:38;12.5;;;10.0;;
50651;SDS011;66928;52.086;5.240;2023-06-22T08:17:50;12.5;;;10.0;;
50651;SDS011;66928;52.086;5.240;2023-06-22T08:19:27;9.71;;;8.71;;
50651;SDS011;66928;52.086;5.240;2023-06-22T08:21:04;10.4;;;9.31;;
50651;SDS011;66928;52.086;5.240;2023-06-22T08:24:17;10.4;;;9.31;;
50651;SDS011;66928;52.086;5.240;2023-06-22T08:25:53;9.4;;;8.5;;
50651;SDS011;66928;52.086;5.240;2023-06-22T08:27:29;11.2;;;9.1;;
50651;SDS011;66928;52.086;5.240;2023-06-22T08:30:42;9.4;;;8.31;;
50651;SDS011;66928;52.086;5.240;2023-06-22T08:32:18;9.5;;;7.5;;
50651;SDS011;66928;52.086;5.240;2023-06-22T08:33:54;10.21;;;8.1;;
50651;SDS011;66928;52.086;5.240;2023-06-22T08:35:30;9.81;;;8.2;;
50651;SDS011;66928;52.086;5.240;2023-06-22T08:38:42;9.0;;;7.8;;
50651;SDS011;66928;52.086;5.240;2023-06-22T08:40:19;8.6;;;7.8;;
50651;SDS011;66928;52.086;5.240;2023-06-22T08:41:56;11.1;;;7.2;;
50651;SDS011;66928;52.086;5.240;2023-06-22T08:45:09;9.81;;;7.2;;
50651;SDS011;66928;52.086;5.240;2023-06-22T08:46:45;10.8;;;8.71;;
50651;SDS011;66928;52.086;5.240;2023-06-22T08:48:21;8.6;;;7.2;;
50651;SDS011;66928;52.086;5.240;2023-06-22T08:51:33;7.7;;;6.8;;
50651;SDS011;66928;52.086;5.240;2023-06-22T08:53:10;8.5;;;7.2;;
50651;SDS011;66928;52.086;5.240;2023-06-22T08:54:46;8.71;;;7.2;;
50651;SDS011;66928;52.086;5.240;2023-06-22T08:56:22;8.31;;;6.6;;
50651;SDS011;66928;52.086;5.240;2023-06-22T08:59:34;7.6;;;6.2;;
50651;SDS011;66928;52.086;5.240;2023-06-22T09:01:10;7.5;;;6.4;;
50651;SDS011;66928;52.086;5.240;2023-06-22T09:02:47;7.0;;;6.3;;
50651;SDS011;66928;52.086;5.240;2023-06-22T09:06:00;7.3;;;6.4;;
50651;SDS011;66928;52.086;5.240;2023-06-22T09:07:36;8.1;;;6.2;;
50651;SDS011;66928;52.086;5.240;2023-06-22T09:09:12;6.8;;;6.1;;
50651;SDS011;66928;52.086;5.240;2023-06-22T09:12:26;7.1;;;5.9;;
50651;SDS011;66928;52.086;5.240;2023-06-22T09:14:02;6.4;;;5.2;;
50651;SDS011;66928;52.086;5.240;2023-06-22T09:15:38;6.8;;;5.8;;
50651;SDS011;66928;52.086;5.240;2023-06-22T09:18:50;7.9;;;5.8;;
50651;SDS011;66928;52.086;5.240;2023-06-22T09:20:26;7.7;;;6.0;;
50651;SDS011;66928;52.086;5.240;2023-06-22T09:22:03;9.6;;;5.4;;
50651;SDS011;66928;52.086;5.240;2023-06-22T09:23:39;8.0;;;5.9;;
50651;SDS011;66928;52.086;5.240;2023-06-22T09:26:51;7.4;;;5.8;;
50651;SDS011;66928;52.086;5.240;2023-06-22T09:28:27;7.4;;;5.7;;
50651;SDS011;66928;52.086;5.240;2023-06-22T09:30:04;7.2;;;5.9;;
50651;SDS011;66928;52.086;5.240;2023-06-22T09:33:17;5.8;;;5.11;;
50651;SDS011;66928;52.086;5.240;2023-06-22T09:34:53;7.9;;;5.6;;
50651;SDS011;66928;52.086;5.240;2023-06-22T09:36:29;7.8;;;5.3;;
50651;SDS011;66928;52.086;5.240;2023-06-22T09:39:41;5.2;;;4.7;;
50651;SDS011;66928;52.086;5.240;2023-06-22T09:41:17;5.9;;;5.11;;
50651;SDS011;66928;52.086;5.240;2023-06-22T09:42:54;5.5;;;4.91;;
50651;SDS011;66928;52.086;5.240;2023-06-22T09:44:30;6.1;;;5.5;;
50651;SDS011;66928;52.086;5.240;2023-06-22T09:47:42;6.0;;;5.2;;
50651;SDS011;66928;52.086;5.240;2023-06-22T09:49:18;7.4;;;5.4;;
50651;SDS011;66928;52.086;5.240;2023-06-22T09:50:54;7.9;;;5.7;;
50651;SDS011;66928;52.086;5.240;2023-06-22T09:54:07;5.7;;;5.11;;
50651;SDS011;66928;52.086;5.240;2023-06-22T09:55:43;5.7;;;5.0;;
50651;SDS011;66928;52.086;5.240;2023-06-22T09:57:19;5.3;;;4.5;;
50651;SDS011;66928;52.086;5.240;2023-06-22T10:00:31;8.2;;;5.8;;
50651;SDS011;66928;52.086;5.240;2023-06-22T10:02:07;6.0;;;4.41;;
50651;SDS011;66928;52.086;5.240;2023-06-22T10:03:45;6.5;;;4.91;;
50651;SDS011;66928;52.086;5.240;2023-06-22T10:06:57;6.4;;;4.61;;
50651;SDS011;66928;52.086;5.240;2023-06-22T10:08:33;6.6;;;4.61;;
50651;SDS011;66928;52.086;5.240;2023-06-22T10:10:09;5.4;;;4.5;;
50651;SDS011;66928;52.086;5.240;2023-06-22T10:11:46;6.6;;;4.7;;
50651;SDS011;66928;52.086;5.240;2023-06-22T10:14:59;4.7;;;4.3;;
50651;SDS011;66928;52.086;5.240;2023-06-22T10:16:36;5.5;;;4.8;;
50651;SDS011;66928;52.086;5.240;2023-06-22T10:18:12;7.4;;;4.61;;
50651;SDS011;66928;52.086;5.240;2023-06-22T10:21:24;4.91;;;4.41;;
50651;SDS011;66928;52.086;5.240;2023-06-22T10:23:00;5.2;;;4.7;;
50651;SDS011;66928;52.086;5.240;2023-06-22T10:24:36;6.4;;;4.8;;
50651;SDS011;66928;52.086;5.240;2023-06-22T10:27:49;6.4;;;5.7;;
50651;SDS011;66928;52.086;5.240;2023-06-22T10:29:25;6.3;;;5.11;;
50651;SDS011;66928;52.086;5.240;2023-06-22T10:31:01;6.3;;;5.2;;
50651;SDS011;66928;52.086;5.240;2023-06-22T10:32:37;7.7;;;5.7;;
50651;SDS011;66928;52.086;5.240;2023-06-22T10:35:51;7.6;;;6.8;;
50651;SDS011;66928;52.086;5.240;2023-06-22T10:37:27;7.7;;;6.9;;
50651;SDS011;66928;52.086;5.240;2023-06-22T10:39:03;8.31;;;7.4;;
50651;SDS011;66928;52.086;5.240;2023-06-22T10:42:15;11.5;;;7.6;;
50651;SDS011;66928;52.086;5.240;2023-06-22T10:43:51;9.6;;;8.31;;
50651;SDS011;66928;52.086;5.240;2023-06-22T10:45:27;10.5;;;8.4;;
50651;SDS011;66928;52.086;5.240;2023-06-22T10:48:41;10.21;;;7.7;;
50651;SDS011;66928;52.086;5.240;2023-06-22T10:50:17;8.5;;;7.6;;
50651;SDS011;66928;52.086;5.240;2023-06-22T10:51:54;8.6;;;7.7;;
50651;SDS011;66928;52.086;5.240;2023-06-22T10:53:30;9.9;;;8.4;;
50651;SDS011;66928;52.086;5.240;2023-06-22T10:56:45;13.1;;;7.6;;
50651;SDS011;66928;52.086;5.240;2023-06-22T10:58:20;9.31;;;8.4;;
50651;SDS011;66928;52.086;5.240;2023-06-22T10:59:57;9.21;;;8.1;;
50651;SDS011;66928;52.086;5.240;2023-06-22T11:03:09;9.4;;;8.1;;
50651;SDS011;66928;52.086;5.240;2023-06-22T11:04:45;10.3;;;7.6;;
50651;SDS011;66928;52.086;5.240;2023-06-22T11:06:21;8.81;;;7.5;;
50651;SDS011;66928;52.086;5.240;2023-06-22T11:09:34;10.1;;;9.1;;
50651;SDS011;66928;52.086;5.240;2023-06-22T11:11:10;10.1;;;8.71;;
50651;SDS011;66928;52.086;5.240;2023-06-22T11:12:46;10.9;;;9.1;;
50651;SDS011;66928;52.086;5.240;2023-06-22T11:15:59;11.0;;;9.31;;
50651;SDS011;66928;52.086;5.240;2023-06-22T11:17:35;10.5;;;9.4;;
50651;SDS011;66928;52.086;5.240;2023-06-22T11:19:12;11.8;;;10.1;;
50651;SDS011;66928;52.086;5.240;2023-06-22T11:20:48;11.9;;;10.7;;
50651;SDS011;66928;52.086;5.240;2023-06-22T11:24:00;14.7;;;10.8;;
50651;SDS011;66928;52.086;5.240;2023-06-22T11:25:36;12.2;;;10.3;;
50651;SDS011;66928;52.086;5.240;2023-06-22T11:27:12;10.8;;;9.71;;
50651;SDS011;66928;52.086;5.240;2023-06-22T11:30:25;11.4;;;10.0;;
50651;SDS011;66928;52.086;5.240;2023-06-22T11:32:01;11.2;;;9.9;;
50651;SDS011;66928;52.086;5.240;2023-06-22T11:33:37;11.8;;;10.6;;
50651;SDS011;66928;52.086;5.240;2023-06-22T11:38:25;10.0;;;9.0;;
50651;SDS011;66928;52.086;5.240;2023-06-22T11:40:02;12.7;;;9.0;;
50651;SDS011;66928;52.086;5.240;2023-06-22T11:41:39;10.7;;;9.0;;
50651;SDS011;66928;52.086;5.240;2023-06-22T11:44:51;9.5;;;8.5;;
50651;SDS011;66928;52.086;5.240;2023-06-22T11:46:27;9.6;;;8.2;;
50651;SDS011;66928;52.086;5.240;2023-06-22T11:48:04;10.0;;;9.0;;
50651;SDS011;66928;52.086;5.240;2023-06-22T11:51:17;10.7;;;8.71;;
50651;SDS011;66928;52.086;5.240;2023-06-22T11:52:53;10.21;;;8.0;;
50651;SDS011;66928;52.086;5.240;2023-06-22T11:54:29;9.81;;;8.31;;
50651;SDS011;66928;52.086;5.240;2023-06-22T11:57:52;9.71;;;8.31;;
50651;SDS011;66928;52.086;5.240;2023-06-22T11:59:30;10.9;;;8.6;;
50651;SDS011;66928;52.086;5.240;2023-06-22T12:01:06;10.4;;;8.2;;
50651;SDS011;66928;52.086;5.240;2023-06-22T12:02:42;9.9;;;7.8;;
50651;SDS011;66928;52.086;5.240;2023-06-22T12:05:54;10.4;;;8.6;;
50651;SDS011;66928;52.086;5.240;2023-06-22T12:07:30;10.1;;;9.0;;
50651;SDS011;66928;52.086;5.240;2023-06-22T12:09:07;10.5;;;9.0;;
50651;SDS011;66928;52.086;5.240;2023-06-22T12:12:20;11.4;;;9.9;;
50651;SDS011;66928;52.086;5.240;2023-06-22T12:13:56;9.9;;;8.71;;
50651;SDS011;66928;52.086;5.240;2023-06-22T12:15:32;11.5;;;9.6;;
50651;SDS011;66928;52.086;5.240;2023-06-22T12:18:45;10.8;;;9.0;;
50651;SDS011;66928;52.086;5.240;2023-06-22T12:20:21;11.3;;;9.0;;
50651;SDS011;66928;52.086;5.240;2023-06-22T12:21:57;11.3;;;9.31;;
50651;SDS011;66928;52.086;5.240;2023-06-22T12:23:33;14.1;;;10.8;;
50651;SDS011;66928;52.086;5.240;2023-06-22T12:26:46;11.5;;;10.3;;
50651;SDS011;66928;52.086;5.240;2023-06-22T12:28:23;11.0;;;9.9;;
50651;SDS011;66928;52.086;5.240;2023-06-22T12:29:59;11.1;;;9.1;;
50651;SDS011;66928;52.086;5.240;2023-06-22T12:33:11;12.6;;;9.81;;
50651;SDS011;66928;52.086;5.240;2023-06-22T12:34:47;11.3;;;10.1;;
50651;SDS011;66928;52.086;5.240;2023-06-22T12:36:23;13.5;;;10.8;;
50651;SDS011;66928;52.086;5.240;2023-06-22T12:39:36;12.0;;;10.3;;
50651;SDS011;66928;52.086;5.240;2023-06-22T12:41:12;12.6;;;10.1;;
50651;SDS011;66928;52.086;5.240;2023-06-22T12:42:48;10.4;;;9.31;;
50651;SDS011;66928;52.086;5.240;2023-06-22T12:44:24;11.2;;;10.0;;
50651;SDS011;66928;52.086;5.240;2023-06-22T12:47:37;13.2;;;10.3;;
50651;SDS011;66928;52.086;5.240;2023-06-22T12:49:13;11.7;;;10.21;;
50651;SDS011;66928;52.086;5.240;2023-06-22T12:50:49;9.6;;;8.6;;
50651;SDS011;66928;52.086;5.240;2023-06-22T12:54:01;10.5;;;8.71;;
50651;SDS011;66928;52.086;5.240;2023-06-22T12:55:37;10.5;;;8.71;;
50651;SDS011;66928;52.086;5.240;2023-06-22T12:57:14;13.3;;;9.71;;
50651;SDS011;66928;52.086;5.240;2023-06-22T13:00:26;10.6;;;8.9;;
50651;SDS011;66928;52.086;5.240;2023-06-22T13:02:02;11.9;;;9.71;;
50651;SDS011;66928;52.086;5.240;2023-06-22T13:03:38;12.2;;;9.9;;
50651;SDS011;66928;52.086;5.240;2023-06-22T13:06:50;11.6;;;9.71;;
50651;SDS011;66928;52.086;5.240;2023-06-22T13:08:27;12.3;;;9.81;;
50651;SDS011;66928;52.086;5.240;2023-06-22T13:10:03;13.0;;;10.7;;
50651;SDS011;66928;52.086;5.240;2023-06-22T13:11:40;12.3;;;10.8;;
50651;SDS011;66928;52.086;5.240;2023-06-22T13:14:52;14.2;;;10.5;;
50651;SDS011;66928;52.086;5.240;2023-06-22T13:16:28;12.9;;;11.5;;
50651;SDS011;66928;52.086;5.240;2023-06-22T13:18:04;14.0;;;12.5;;
50651;SDS011;66928;52.086;5.240;2023-06-22T13:21:17;13.5;;;11.6;;
50651;SDS011;66928;52.086;5.240;2023-06-22T13:22:53;14.8;;;12.3;;
50651;SDS011;66928;52.086;5.240;2023-06-22T13:24:29;14.0;;;12.6;;
50651;SDS011;66928;52.086;5.240;2023-06-22T13:27:43;15.6;;;14.0;;
50651;SDS011;66928;52.086;5.240;2023-06-22T13:29:20;15.5;;;13.9;;
50651;SDS011;66928;52.086;5.240;2023-06-22T13:30:56;16.9;;;13.9;;
50651;SDS011;66928;52.086;5.240;2023-06-22T13:32:32;15.3;;;13.5;;
50651;SDS011;66928;52.086;5.240;2023-06-22T13:35:44;15.0;;;13.4;;
50651;SDS011;66928;52.086;5.240;2023-06-22T13:37:20;16.11;;;13.7;;
50651;SDS011;66928;52.086;5.240;2023-06-22T13:38:57;14.7;;;13.1;;
50651;SDS011;66928;52.086;5.240;2023-06-22T13:42:09;15.5;;;13.9;;
50651;SDS011;66928;52.086;5.240;2023-06-22T13:43:45;15.0;;;13.1;;
50651;SDS011;66928;52.086;5.240;2023-06-22T13:45:21;16.0;;;14.3;;
50651;SDS011;66928;52.086;5.240;2023-06-22T13:48:33;15.7;;;14.0;;
50651;SDS011;66928;52.086;5.240;2023-06-22T13:50:10;17.91;;;14.3;;
50651;SDS011;66928;52.086;5.240;2023-06-22T13:51:46;17.5;;;14.2;;
50651;SDS011;66928;52.086;5.240;2023-06-22T13:55:00;15.5;;;13.3;;
50651;SDS011;66928;52.086;5.240;2023-06-22T13:56:37;17.8;;;15.4;;
50651;SDS011;66928;52.086;5.240;2023-06-22T13:58:13;18.11;;;14.8;;
50651;SDS011;66928;52.086;5.240;2023-06-22T13:59:50;19.61;;;15.0;;
50651;SDS011;66928;52.086;5.240;2023-06-22T14:03:02;16.7;;;14.9;;
50651;SDS011;66928;52.086;5.240;2023-06-22T14:04:38;17.11;;;15.1;;